sensor_id;sensor_type;location;lat;lon;timestamp;P1;durP1;ratioP1;P2;durP2;ratioP2
43529;SDS011;55654;50.966;6.878;2023-11-19T00:01:36;1.23;;;0.50;;
43529;SDS011;55654;50.966;6.878;2023-11-19T00:04:17;4.20;;;0.70;;
43529;SDS011;55654;50.966;6.878;2023-11-19T00:06:50;1.43;;;0.70;;
43529;SDS011;55654;50.966;6.878;2023-11-19T00:09:16;1.43;;;0.73;;
43529;SDS011;55654;50.966;6.878;2023-11-19T00:11:43;3.90;;;1.03;;
43529;SDS011;55654;50.966;6.878;2023-11-19T00:14:21;3.40;;;1.00;;
43529;SDS011;55654;50.966;6.878;2023-11-19T00:16:50;3.13;;;0.97;;
43529;SDS011;55654;50.966;6.878;2023-11-19T00:19:18;1.90;;;0.87;;
43529;SDS011;55654;50.966;6.878;2023-11-19T00:21:44;1.90;;;0.77;;
43529;SDS011;55654;50.966;6.878;2023-11-19T00:24:18;1.43;;;0.93;;
43529;SDS011;55654;50.966;6.878;2023-11-19T00:26:49;1.90;;;0.93;;
43529;SDS011;55654;50.966;6.878;2023-11-19T00:29:15;1.30;;;0.70;;
43529;SDS011;55654;50.966;6.878;2023-11-19T00:31:44;1.13;;;0.80;;
43529;SDS011;55654;50.966;6.878;2023-11-19T00:34:10;2.43;;;0.77;;
43529;SDS011;55654;50.966;6.878;2023-11-19T00:36:38;1.07;;;0.50;;
43529;SDS011;55654;50.966;6.878;2023-11-19T00:39:08;1.13;;;0.70;;
43529;SDS011;55654;50.966;6.878;2023-11-19T00:41:36;1.53;;;0.70;;
43529;SDS011;55654;50.966;6.878;2023-11-19T00:44:02;1.50;;;0.80;;
43529;SDS011;55654;50.966;6.878;2023-11-19T00:46:28;2.63;;;0.60;;
43529;SDS011;55654;50.966;6.878;2023-11-19T00:48:54;2.03;;;0.80;;
43529;SDS011;55654;50.966;6.878;2023-11-19T00:51:29;1.53;;;0.80;;
43529;SDS011;55654;50.966;6.878;2023-11-19T00:53:56;0.83;;;0.50;;
43529;SDS011;55654;50.966;6.878;2023-11-19T00:56:22;0.70;;;0.50;;
43529;SDS011;55654;50.966;6.878;2023-11-19T00:58:49;5.23;;;0.40;;
43529;SDS011;55654;50.966;6.878;2023-11-19T01:01:18;0.40;;;0.20;;
43529;SDS011;55654;50.966;6.878;2023-11-19T01:03:57;3.60;;;0.50;;
43529;SDS011;55654;50.966;6.878;2023-11-19T01:06:26;0.33;;;0.20;;
43529;SDS011;55654;50.966;6.878;2023-11-19T01:08:53;2.03;;;0.37;;
43529;SDS011;55654;50.966;6.878;2023-11-19T01:11:22;7.03;;;0.50;;
43529;SDS011;55654;50.966;6.878;2023-11-19T01:13:48;8.60;;;1.30;;
43529;SDS011;55654;50.966;6.878;2023-11-19T01:16:16;2.63;;;0.40;;
43529;SDS011;55654;50.966;6.878;2023-11-19T01:18:48;2.60;;;0.70;;
43529;SDS011;55654;50.966;6.878;2023-11-19T01:21:15;1.10;;;0.30;;
43529;SDS011;55654;50.966;6.878;2023-11-19T01:23:45;0.43;;;0.23;;
43529;SDS011;55654;50.966;6.878;2023-11-19T01:26:11;0.57;;;0.23;;
43529;SDS011;55654;50.966;6.878;2023-11-19T01:28:40;1.50;;;0.30;;
43529;SDS011;55654;50.966;6.878;2023-11-19T01:31:12;2.07;;;0.30;;
43529;SDS011;55654;50.966;6.878;2023-11-19T01:33:43;2.53;;;0.40;;
43529;SDS011;55654;50.966;6.878;2023-11-19T01:36:12;1.97;;;0.33;;
43529;SDS011;55654;50.966;6.878;2023-11-19T01:38:43;1.90;;;0.47;;
43529;SDS011;55654;50.966;6.878;2023-11-19T01:41:14;1.43;;;0.50;;
43529;SDS011;55654;50.966;6.878;2023-11-19T01:43:43;1.50;;;0.77;;
43529;SDS011;55654;50.966;6.878;2023-11-19T01:46:13;5.90;;;0.87;;
43529;SDS011;55654;50.966;6.878;2023-11-19T01:48:47;2.20;;;0.50;;
43529;SDS011;55654;50.966;6.878;2023-11-19T01:51:15;2.23;;;0.60;;
43529;SDS011;55654;50.966;6.878;2023-11-19T01:53:46;3.83;;;0.97;;
43529;SDS011;55654;50.966;6.878;2023-11-19T01:56:15;4.13;;;0.90;;
43529;SDS011;55654;50.966;6.878;2023-11-19T01:58:41;2.57;;;0.87;;
43529;SDS011;55654;50.966;6.878;2023-11-19T02:01:09;4.57;;;1.83;;
43529;SDS011;55654;50.966;6.878;2023-11-19T02:03:40;8.20;;;1.23;;
43529;SDS011;55654;50.966;6.878;2023-11-19T02:06:15;6.17;;;1.63;;
43529;SDS011;55654;50.966;6.878;2023-11-19T02:08:42;8.27;;;1.30;;
43529;SDS011;55654;50.966;6.878;2023-11-19T02:11:10;4.27;;;1.57;;
43529;SDS011;55654;50.966;6.878;2023-11-19T02:13:37;5.13;;;1.20;;
43529;SDS011;55654;50.966;6.878;2023-11-19T02:16:03;5.23;;;1.43;;
43529;SDS011;55654;50.966;6.878;2023-11-19T02:18:32;6.33;;;1.60;;
43529;SDS011;55654;50.966;6.878;2023-11-19T02:20:58;5.97;;;0.90;;
43529;SDS011;55654;50.966;6.878;2023-11-19T02:23:29;6.37;;;1.40;;
43529;SDS011;55654;50.966;6.878;2023-11-19T02:26:08;5.83;;;1.30;;
43529;SDS011;55654;50.966;6.878;2023-11-19T02:28:36;6.50;;;1.23;;
43529;SDS011;55654;50.966;6.878;2023-11-19T02:31:02;5.53;;;1.40;;
43529;SDS011;55654;50.966;6.878;2023-11-19T02:33:34;4.70;;;1.15;;
43529;SDS011;55654;50.966;6.878;2023-11-19T02:36:08;8.23;;;2.07;;
43529;SDS011;55654;50.966;6.878;2023-11-19T02:38:36;5.33;;;1.40;;
43529;SDS011;55654;50.966;6.878;2023-11-19T02:41:15;7.77;;;1.60;;
43529;SDS011;55654;50.966;6.878;2023-11-19T02:43:45;4.70;;;1.70;;
43529;SDS011;55654;50.966;6.878;2023-11-19T02:46:13;8.97;;;1.57;;
43529;SDS011;55654;50.966;6.878;2023-11-19T02:48:40;8.37;;;1.30;;
43529;SDS011;55654;50.966;6.878;2023-11-19T02:51:16;9.77;;;2.00;;
43529;SDS011;55654;50.966;6.878;2023-11-19T02:53:45;6.77;;;2.10;;
43529;SDS011;55654;50.966;6.878;2023-11-19T02:56:13;10.93;;;1.87;;
43529;SDS011;55654;50.966;6.878;2023-11-19T02:58:50;10.50;;;2.03;;
43529;SDS011;55654;50.966;6.878;2023-11-19T03:01:22;9.10;;;2.10;;
43529;SDS011;55654;50.966;6.878;2023-11-19T03:03:54;13.20;;;1.87;;
43529;SDS011;55654;50.966;6.878;2023-11-19T03:06:22;7.53;;;1.63;;
43529;SDS011;55654;50.966;6.878;2023-11-19T03:08:57;14.93;;;2.23;;
43529;SDS011;55654;50.966;6.878;2023-11-19T03:11:32;11.70;;;2.00;;
43529;SDS011;55654;50.966;6.878;2023-11-19T03:14:11;13.60;;;2.40;;
43529;SDS011;55654;50.966;6.878;2023-11-19T03:16:39;10.80;;;2.23;;
43529;SDS011;55654;50.966;6.878;2023-11-19T03:19:18;8.30;;;2.07;;
43529;SDS011;55654;50.966;6.878;2023-11-19T03:21:44;14.67;;;2.53;;
43529;SDS011;55654;50.966;6.878;2023-11-19T03:24:15;14.43;;;2.97;;
43529;SDS011;55654;50.966;6.878;2023-11-19T03:26:51;10.67;;;1.90;;
43529;SDS011;55654;50.966;6.878;2023-11-19T03:29:21;16.03;;;2.63;;
43529;SDS011;55654;50.966;6.878;2023-11-19T03:31:51;10.60;;;2.40;;
43529;SDS011;55654;50.966;6.878;2023-11-19T03:34:24;16.43;;;2.53;;
43529;SDS011;55654;50.966;6.878;2023-11-19T03:36:54;14.80;;;2.20;;
43529;SDS011;55654;50.966;6.878;2023-11-19T03:39:23;11.63;;;2.40;;
43529;SDS011;55654;50.966;6.878;2023-11-19T03:41:52;15.83;;;2.27;;
43529;SDS011;55654;50.966;6.878;2023-11-19T03:44:20;16.57;;;2.50;;
43529;SDS011;55654;50.966;6.878;2023-11-19T03:46:53;20.63;;;3.53;;
43529;SDS011;55654;50.966;6.878;2023-11-19T03:49:29;17.13;;;3.00;;
43529;SDS011;55654;50.966;6.878;2023-11-19T03:51:55;12.73;;;1.93;;
43529;SDS011;55654;50.966;6.878;2023-11-19T03:54:23;14.17;;;2.23;;
43529;SDS011;55654;50.966;6.878;2023-11-19T03:56:59;12.30;;;2.13;;
43529;SDS011;55654;50.966;6.878;2023-11-19T03:59:28;10.37;;;2.40;;
43529;SDS011;55654;50.966;6.878;2023-11-19T04:01:57;16.20;;;3.37;;
43529;SDS011;55654;50.966;6.878;2023-11-19T04:04:36;14.00;;;2.47;;
43529;SDS011;55654;50.966;6.878;2023-11-19T04:07:09;14.03;;;3.43;;
43529;SDS011;55654;50.966;6.878;2023-11-19T04:09:37;12.83;;;2.63;;
43529;SDS011;55654;50.966;6.878;2023-11-19T04:12:06;13.93;;;2.80;;
43529;SDS011;55654;50.966;6.878;2023-11-19T04:14:34;17.33;;;3.10;;
43529;SDS011;55654;50.966;6.878;2023-11-19T04:17:05;16.27;;;3.07;;
43529;SDS011;55654;50.966;6.878;2023-11-19T04:19:34;12.13;;;2.10;;
43529;SDS011;55654;50.966;6.878;2023-11-19T04:22:04;16.53;;;3.17;;
43529;SDS011;55654;50.966;6.878;2023-11-19T04:24:34;12.67;;;2.50;;
43529;SDS011;55654;50.966;6.878;2023-11-19T04:27:07;14.77;;;2.73;;
43529;SDS011;55654;50.966;6.878;2023-11-19T04:29:52;28.20;;;3.93;;
43529;SDS011;55654;50.966;6.878;2023-11-19T04:32:25;20.43;;;2.73;;
43529;SDS011;55654;50.966;6.878;2023-11-19T04:34:59;17.77;;;3.10;;
43529;SDS011;55654;50.966;6.878;2023-11-19T04:37:36;17.60;;;3.20;;
43529;SDS011;55654;50.966;6.878;2023-11-19T04:40:05;22.73;;;3.77;;
43529;SDS011;55654;50.966;6.878;2023-11-19T04:42:36;20.20;;;3.33;;
43529;SDS011;55654;50.966;6.878;2023-11-19T04:45:06;17.80;;;3.47;;
43529;SDS011;55654;50.966;6.878;2023-11-19T04:47:32;20.03;;;3.33;;
43529;SDS011;55654;50.966;6.878;2023-11-19T04:50:11;18.63;;;3.77;;
43529;SDS011;55654;50.966;6.878;2023-11-19T04:52:38;19.37;;;3.33;;
43529;SDS011;55654;50.966;6.878;2023-11-19T04:55:12;16.63;;;2.78;;
43529;SDS011;55654;50.966;6.878;2023-11-19T04:57:40;27.17;;;3.80;;
43529;SDS011;55654;50.966;6.878;2023-11-19T05:00:09;12.30;;;2.57;;
43529;SDS011;55654;50.966;6.878;2023-11-19T05:02:38;10.23;;;2.35;;
43529;SDS011;55654;50.966;6.878;2023-11-19T05:05:06;15.30;;;3.00;;
43529;SDS011;55654;50.966;6.878;2023-11-19T05:07:35;16.83;;;3.30;;
43529;SDS011;55654;50.966;6.878;2023-11-19T05:10:11;19.70;;;3.67;;
43529;SDS011;55654;50.966;6.878;2023-11-19T05:12:37;22.47;;;3.73;;
43529;SDS011;55654;50.966;6.878;2023-11-19T05:15:04;20.00;;;3.50;;
43529;SDS011;55654;50.966;6.878;2023-11-19T05:17:30;24.00;;;4.00;;
43529;SDS011;55654;50.966;6.878;2023-11-19T05:19:56;18.37;;;3.17;;
43529;SDS011;55654;50.966;6.878;2023-11-19T05:22:30;20.73;;;3.73;;
43529;SDS011;55654;50.966;6.878;2023-11-19T05:25:08;15.70;;;3.67;;
43529;SDS011;55654;50.966;6.878;2023-11-19T05:27:37;16.87;;;2.37;;
43529;SDS011;55654;50.966;6.878;2023-11-19T05:30:04;20.10;;;3.00;;
43529;SDS011;55654;50.966;6.878;2023-11-19T05:32:35;15.88;;;3.08;;
43529;SDS011;55654;50.966;6.878;2023-11-19T05:35:06;27.93;;;3.90;;
43529;SDS011;55654;50.966;6.878;2023-11-19T05:37:34;28.50;;;4.07;;
43529;SDS011;55654;50.966;6.878;2023-11-19T05:40:01;20.30;;;3.83;;
43529;SDS011;55654;50.966;6.878;2023-11-19T05:42:33;20.50;;;3.17;;
43529;SDS011;55654;50.966;6.878;2023-11-19T05:45:00;24.70;;;3.83;;
43529;SDS011;55654;50.966;6.878;2023-11-19T05:47:28;22.20;;;4.13;;
43529;SDS011;55654;50.966;6.878;2023-11-19T05:49:53;26.67;;;3.50;;
43529;SDS011;55654;50.966;6.878;2023-11-19T05:52:22;28.53;;;4.43;;
43529;SDS011;55654;50.966;6.878;2023-11-19T05:54:50;18.90;;;2.97;;
43529;SDS011;55654;50.966;6.878;2023-11-19T05:57:21;21.67;;;5.37;;
43529;SDS011;55654;50.966;6.878;2023-11-19T05:59:50;22.60;;;3.63;;
43529;SDS011;55654;50.966;6.878;2023-11-19T06:02:16;27.37;;;4.80;;
43529;SDS011;55654;50.966;6.878;2023-11-19T06:04:42;29.07;;;4.67;;
43529;SDS011;55654;50.966;6.878;2023-11-19T06:07:24;20.97;;;4.07;;
43529;SDS011;55654;50.966;6.878;2023-11-19T06:09:50;15.00;;;3.13;;
43529;SDS011;55654;50.966;6.878;2023-11-19T06:12:31;17.20;;;4.53;;
43529;SDS011;55654;50.966;6.878;2023-11-19T06:14:59;21.60;;;3.80;;
43529;SDS011;55654;50.966;6.878;2023-11-19T06:17:34;21.00;;;3.50;;
43529;SDS011;55654;50.966;6.878;2023-11-19T06:20:00;20.07;;;3.23;;
43529;SDS011;55654;50.966;6.878;2023-11-19T06:22:26;15.23;;;3.80;;
43529;SDS011;55654;50.966;6.878;2023-11-19T06:24:51;26.73;;;3.20;;
43529;SDS011;55654;50.966;6.878;2023-11-19T06:27:20;33.57;;;4.53;;
43529;SDS011;55654;50.966;6.878;2023-11-19T06:29:47;17.73;;;3.77;;
43529;SDS011;55654;50.966;6.878;2023-11-19T06:32:13;22.73;;;4.17;;
43529;SDS011;55654;50.966;6.878;2023-11-19T06:34:44;32.13;;;4.90;;
43529;SDS011;55654;50.966;6.878;2023-11-19T06:37:09;23.60;;;3.80;;
43529;SDS011;55654;50.966;6.878;2023-11-19T06:39:42;28.70;;;4.37;;
43529;SDS011;55654;50.966;6.878;2023-11-19T06:42:08;21.00;;;3.70;;
43529;SDS011;55654;50.966;6.878;2023-11-19T06:44:36;28.80;;;4.13;;
43529;SDS011;55654;50.966;6.878;2023-11-19T06:47:04;33.63;;;4.40;;
43529;SDS011;55654;50.966;6.878;2023-11-19T06:49:39;20.83;;;3.23;;
43529;SDS011;55654;50.966;6.878;2023-11-19T06:52:13;29.43;;;4.37;;
43529;SDS011;55654;50.966;6.878;2023-11-19T06:54:44;22.87;;;4.73;;
43529;SDS011;55654;50.966;6.878;2023-11-19T06:57:38;20.33;;;3.60;;
43529;SDS011;55654;50.966;6.878;2023-11-19T07:00:07;20.90;;;3.87;;
43529;SDS011;55654;50.966;6.878;2023-11-19T07:02:33;25.47;;;3.80;;
43529;SDS011;55654;50.966;6.878;2023-11-19T07:05:01;21.80;;;3.70;;
43529;SDS011;55654;50.966;6.878;2023-11-19T07:07:30;24.30;;;3.70;;
43529;SDS011;55654;50.966;6.878;2023-11-19T07:10:01;27.35;;;3.63;;
43529;SDS011;55654;50.966;6.878;2023-11-19T07:12:37;24.67;;;4.60;;
43529;SDS011;55654;50.966;6.878;2023-11-19T07:15:03;24.87;;;4.43;;
43529;SDS011;55654;50.966;6.878;2023-11-19T07:17:35;23.40;;;4.13;;
43529;SDS011;55654;50.966;6.878;2023-11-19T07:20:05;22.65;;;3.15;;
43529;SDS011;55654;50.966;6.878;2023-11-19T07:22:44;23.00;;;3.30;;
43529;SDS011;55654;50.966;6.878;2023-11-19T07:25:22;20.73;;;3.30;;
43529;SDS011;55654;50.966;6.878;2023-11-19T07:27:51;24.02;;;3.80;;
43529;SDS011;55654;50.966;6.878;2023-11-19T07:30:20;21.90;;;4.33;;
43529;SDS011;55654;50.966;6.878;2023-11-19T07:32:46;18.60;;;3.53;;
43529;SDS011;55654;50.966;6.878;2023-11-19T07:35:28;23.70;;;3.77;;
43529;SDS011;55654;50.966;6.878;2023-11-19T07:37:59;21.23;;;3.43;;
43529;SDS011;55654;50.966;6.878;2023-11-19T07:40:40;22.10;;;4.70;;
43529;SDS011;55654;50.966;6.878;2023-11-19T07:43:08;21.97;;;3.57;;
43529;SDS011;55654;50.966;6.878;2023-11-19T07:45:38;24.67;;;3.33;;
43529;SDS011;55654;50.966;6.878;2023-11-19T07:48:08;24.20;;;3.75;;
43529;SDS011;55654;50.966;6.878;2023-11-19T07:50:40;18.35;;;3.20;;
43529;SDS011;55654;50.966;6.878;2023-11-19T07:53:06;23.17;;;3.97;;
43529;SDS011;55654;50.966;6.878;2023-11-19T07:55:39;25.00;;;3.87;;
43529;SDS011;55654;50.966;6.878;2023-11-19T07:58:08;26.00;;;4.17;;
43529;SDS011;55654;50.966;6.878;2023-11-19T08:00:41;27.17;;;4.03;;
43529;SDS011;55654;50.966;6.878;2023-11-19T08:03:10;31.63;;;5.17;;
43529;SDS011;55654;50.966;6.878;2023-11-19T08:05:41;22.63;;;3.50;;
43529;SDS011;55654;50.966;6.878;2023-11-19T08:08:06;19.40;;;3.73;;
43529;SDS011;55654;50.966;6.878;2023-11-19T08:10:42;26.03;;;3.70;;
43529;SDS011;55654;50.966;6.878;2023-11-19T08:13:11;24.30;;;4.30;;
43529;SDS011;55654;50.966;6.878;2023-11-19T08:15:54;23.93;;;3.80;;
43529;SDS011;55654;50.966;6.878;2023-11-19T08:18:23;18.03;;;3.43;;
43529;SDS011;55654;50.966;6.878;2023-11-19T08:20:55;18.67;;;3.47;;
43529;SDS011;55654;50.966;6.878;2023-11-19T08:23:38;20.43;;;4.37;;
43529;SDS011;55654;50.966;6.878;2023-11-19T08:26:12;23.00;;;5.30;;
43529;SDS011;55654;50.966;6.878;2023-11-19T08:28:41;19.20;;;3.77;;
43529;SDS011;55654;50.966;6.878;2023-11-19T08:31:10;26.43;;;4.57;;
43529;SDS011;55654;50.966;6.878;2023-11-19T08:33:35;18.03;;;4.63;;
43529;SDS011;55654;50.966;6.878;2023-11-19T08:36:02;20.40;;;4.90;;
43529;SDS011;55654;50.966;6.878;2023-11-19T08:38:29;18.00;;;3.20;;
43529;SDS011;55654;50.966;6.878;2023-11-19T08:40:59;24.10;;;3.87;;
43529;SDS011;55654;50.966;6.878;2023-11-19T08:43:28;23.00;;;4.13;;
43529;SDS011;55654;50.966;6.878;2023-11-19T08:45:57;22.53;;;4.17;;
43529;SDS011;55654;50.966;6.878;2023-11-19T08:48:23;22.83;;;4.13;;
43529;SDS011;55654;50.966;6.878;2023-11-19T08:50:51;24.50;;;4.67;;
43529;SDS011;55654;50.966;6.878;2023-11-19T08:53:27;23.43;;;5.23;;
43529;SDS011;55654;50.966;6.878;2023-11-19T08:55:55;21.67;;;3.87;;
43529;SDS011;55654;50.966;6.878;2023-11-19T08:58:30;24.23;;;4.63;;
43529;SDS011;55654;50.966;6.878;2023-11-19T09:00:58;21.77;;;4.93;;
43529;SDS011;55654;50.966;6.878;2023-11-19T09:03:24;25.10;;;4.97;;
43529;SDS011;55654;50.966;6.878;2023-11-19T09:05:54;23.17;;;4.83;;
43529;SDS011;55654;50.966;6.878;2023-11-19T09:08:20;22.87;;;3.50;;
43529;SDS011;55654;50.966;6.878;2023-11-19T09:10:47;27.53;;;4.77;;
43529;SDS011;55654;50.966;6.878;2023-11-19T09:13:13;21.63;;;4.30;;
43529;SDS011;55654;50.966;6.878;2023-11-19T09:15:40;20.67;;;4.00;;
43529;SDS011;55654;50.966;6.878;2023-11-19T09:18:07;30.90;;;4.87;;
43529;SDS011;55654;50.966;6.878;2023-11-19T09:20:35;25.30;;;4.13;;
43529;SDS011;55654;50.966;6.878;2023-11-19T09:23:03;28.60;;;4.00;;
43529;SDS011;55654;50.966;6.878;2023-11-19T09:25:30;22.03;;;4.13;;
43529;SDS011;55654;50.966;6.878;2023-11-19T09:27:59;25.73;;;4.60;;
43529;SDS011;55654;50.966;6.878;2023-11-19T09:30:25;20.57;;;3.73;;
43529;SDS011;55654;50.966;6.878;2023-11-19T09:32:50;24.83;;;4.70;;
43529;SDS011;55654;50.966;6.878;2023-11-19T09:35:16;29.63;;;5.13;;
43529;SDS011;55654;50.966;6.878;2023-11-19T09:37:44;21.53;;;3.00;;
43529;SDS011;55654;50.966;6.878;2023-11-19T09:40:13;22.70;;;4.33;;
43529;SDS011;55654;50.966;6.878;2023-11-19T09:42:46;25.70;;;4.23;;
43529;SDS011;55654;50.966;6.878;2023-11-19T09:45:15;40.00;;;6.27;;
43529;SDS011;55654;50.966;6.878;2023-11-19T09:47:45;39.83;;;5.13;;
43529;SDS011;55654;50.966;6.878;2023-11-19T09:50:17;24.27;;;5.00;;
43529;SDS011;55654;50.966;6.878;2023-11-19T09:52:44;29.83;;;4.03;;
43529;SDS011;55654;50.966;6.878;2023-11-19T09:55:10;20.60;;;3.87;;
43529;SDS011;55654;50.966;6.878;2023-11-19T09:57:39;19.27;;;3.53;;
43529;SDS011;55654;50.966;6.878;2023-11-19T10:00:11;26.83;;;4.80;;
43529;SDS011;55654;50.966;6.878;2023-11-19T10:02:42;24.42;;;3.83;;
43529;SDS011;55654;50.966;6.878;2023-11-19T10:05:11;28.53;;;4.70;;
43529;SDS011;55654;50.966;6.878;2023-11-19T10:07:46;23.00;;;4.57;;
43529;SDS011;55654;50.966;6.878;2023-11-19T10:10:12;24.42;;;4.80;;
43529;SDS011;55654;50.966;6.878;2023-11-19T10:12:46;24.23;;;4.63;;
43529;SDS011;55654;50.966;6.878;2023-11-19T10:15:33;29.42;;;4.65;;
43529;SDS011;55654;50.966;6.878;2023-11-19T10:18:01;22.88;;;3.55;;
43529;SDS011;55654;50.966;6.878;2023-11-19T10:20:47;31.03;;;5.37;;
43529;SDS011;55654;50.966;6.878;2023-11-19T10:23:15;27.67;;;5.07;;
43529;SDS011;55654;50.966;6.878;2023-11-19T10:25:44;25.80;;;4.60;;
43529;SDS011;55654;50.966;6.878;2023-11-19T10:28:10;22.77;;;4.05;;
43529;SDS011;55654;50.966;6.878;2023-11-19T10:30:38;20.52;;;3.00;;
43529;SDS011;55654;50.966;6.878;2023-11-19T10:33:13;27.48;;;4.38;;
43529;SDS011;55654;50.966;6.878;2023-11-19T10:35:54;23.25;;;4.95;;
43529;SDS011;55654;50.966;6.878;2023-11-19T10:38:25;13.07;;;2.83;;
43529;SDS011;55654;50.966;6.878;2023-11-19T10:41:00;22.70;;;3.75;;
43529;SDS011;55654;50.966;6.878;2023-11-19T10:43:31;16.50;;;3.50;;
43529;SDS011;55654;50.966;6.878;2023-11-19T10:46:10;22.70;;;3.85;;
43529;SDS011;55654;50.966;6.878;2023-11-19T10:48:48;25.30;;;4.43;;
43529;SDS011;55654;50.966;6.878;2023-11-19T10:51:19;29.83;;;5.20;;
43529;SDS011;55654;50.966;6.878;2023-11-19T10:53:47;15.75;;;3.08;;
43529;SDS011;55654;50.966;6.878;2023-11-19T10:56:15;25.55;;;5.07;;
43529;SDS011;55654;50.966;6.878;2023-11-19T10:58:45;20.83;;;3.70;;
43529;SDS011;55654;50.966;6.878;2023-11-19T11:01:21;26.48;;;4.20;;
43529;SDS011;55654;50.966;6.878;2023-11-19T11:03:52;20.38;;;3.80;;
43529;SDS011;55654;50.966;6.878;2023-11-19T11:06:22;22.65;;;3.50;;
43529;SDS011;55654;50.966;6.878;2023-11-19T11:08:54;19.38;;;3.35;;
43529;SDS011;55654;50.966;6.878;2023-11-19T11:11:26;18.13;;;3.08;;
43529;SDS011;55654;50.966;6.878;2023-11-19T11:13:52;24.30;;;3.80;;
43529;SDS011;55654;50.966;6.878;2023-11-19T11:16:20;21.90;;;4.28;;
43529;SDS011;55654;50.966;6.878;2023-11-19T11:18:50;26.70;;;4.20;;
43529;SDS011;55654;50.966;6.878;2023-11-19T11:21:20;24.40;;;4.40;;
43529;SDS011;55654;50.966;6.878;2023-11-19T11:24:08;25.03;;;4.43;;
43529;SDS011;55654;50.966;6.878;2023-11-19T11:30:01;22.23;;;3.87;;
43529;SDS011;55654;50.966;6.878;2023-11-19T11:32:52;25.67;;;4.33;;
43529;SDS011;55654;50.966;6.878;2023-11-19T11:35:41;16.67;;;3.57;;
43529;SDS011;55654;50.966;6.878;2023-11-19T11:38:37;20.33;;;3.53;;
43529;SDS011;55654;50.966;6.878;2023-11-19T11:43:47;25.17;;;3.90;;
43529;SDS011;55654;50.966;6.878;2023-11-19T11:49:05;16.23;;;3.30;;
43529;SDS011;55654;50.966;6.878;2023-11-19T11:59:31;20.50;;;3.88;;
43529;SDS011;55654;50.966;6.878;2023-11-19T12:02:07;12.35;;;2.17;;
43529;SDS011;55654;50.966;6.878;2023-11-19T12:04:47;11.70;;;2.55;;
43529;SDS011;55654;50.966;6.878;2023-11-19T12:07:23;17.50;;;3.03;;
43529;SDS011;55654;50.966;6.878;2023-11-19T12:10:06;19.15;;;3.20;;
43529;SDS011;55654;50.966;6.878;2023-11-19T12:12:37;20.05;;;3.70;;
43529;SDS011;55654;50.966;6.878;2023-11-19T12:15:06;13.95;;;2.40;;
43529;SDS011;55654;50.966;6.878;2023-11-19T12:17:42;18.80;;;3.42;;
43529;SDS011;55654;50.966;6.878;2023-11-19T12:20:14;18.92;;;3.17;;
43529;SDS011;55654;50.966;6.878;2023-11-19T12:22:47;14.85;;;2.97;;
43529;SDS011;55654;50.966;6.878;2023-11-19T12:25:14;22.55;;;2.95;;
43529;SDS011;55654;50.966;6.878;2023-11-19T12:27:47;12.23;;;2.50;;
43529;SDS011;55654;50.966;6.878;2023-11-19T12:30:23;16.20;;;3.03;;
43529;SDS011;55654;50.966;6.878;2023-11-19T12:32:52;18.63;;;3.33;;
43529;SDS011;55654;50.966;6.878;2023-11-19T12:35:24;18.63;;;2.63;;
43529;SDS011;55654;50.966;6.878;2023-11-19T12:37:53;15.57;;;2.42;;
43529;SDS011;55654;50.966;6.878;2023-11-19T12:40:25;19.35;;;3.53;;
43529;SDS011;55654;50.966;6.878;2023-11-19T12:42:53;22.85;;;4.05;;
43529;SDS011;55654;50.966;6.878;2023-11-19T12:45:19;13.40;;;2.88;;
43529;SDS011;55654;50.966;6.878;2023-11-19T12:47:48;14.35;;;2.70;;
43529;SDS011;55654;50.966;6.878;2023-11-19T12:50:17;10.13;;;2.53;;
43529;SDS011;55654;50.966;6.878;2023-11-19T12:53:04;13.35;;;2.17;;
43529;SDS011;55654;50.966;6.878;2023-11-19T12:55:32;16.73;;;3.08;;
43529;SDS011;55654;50.966;6.878;2023-11-19T12:57:58;11.43;;;1.92;;
43529;SDS011;55654;50.966;6.878;2023-11-19T13:00:27;11.18;;;2.10;;
43529;SDS011;55654;50.966;6.878;2023-11-19T13:02:56;13.45;;;2.72;;
43529;SDS011;55654;50.966;6.878;2023-11-19T13:05:29;12.55;;;2.35;;
43529;SDS011;55654;50.966;6.878;2023-11-19T13:08:03;21.02;;;3.92;;
43529;SDS011;55654;50.966;6.878;2023-11-19T13:10:52;13.90;;;2.50;;
43529;SDS011;55654;50.966;6.878;2023-11-19T13:13:18;17.02;;;2.55;;
43529;SDS011;55654;50.966;6.878;2023-11-19T13:15:50;20.17;;;3.08;;
43529;SDS011;55654;50.966;6.878;2023-11-19T13:18:16;10.13;;;2.15;;
43529;SDS011;55654;50.966;6.878;2023-11-19T13:20:44;22.02;;;3.40;;
43529;SDS011;55654;50.966;6.878;2023-11-19T13:23:10;22.55;;;4.15;;
43529;SDS011;55654;50.966;6.878;2023-11-19T13:25:38;15.18;;;2.45;;
43529;SDS011;55654;50.966;6.878;2023-11-19T13:28:04;15.52;;;2.67;;
43529;SDS011;55654;50.966;6.878;2023-11-19T13:30:31;15.65;;;3.65;;
43529;SDS011;55654;50.966;6.878;2023-11-19T13:33:03;30.58;;;4.45;;
43529;SDS011;55654;50.966;6.878;2023-11-19T13:35:29;18.75;;;3.08;;
43529;SDS011;55654;50.966;6.878;2023-11-19T13:37:55;15.48;;;3.55;;
43529;SDS011;55654;50.966;6.878;2023-11-19T13:40:21;22.85;;;3.70;;
43529;SDS011;55654;50.966;6.878;2023-11-19T13:42:47;15.75;;;2.70;;
43529;SDS011;55654;50.966;6.878;2023-11-19T13:45:16;16.58;;;2.97;;
43529;SDS011;55654;50.966;6.878;2023-11-19T13:47:44;23.20;;;4.55;;
43529;SDS011;55654;50.966;6.878;2023-11-19T13:50:15;20.60;;;3.90;;
43529;SDS011;55654;50.966;6.878;2023-11-19T13:52:45;15.73;;;3.47;;
43529;SDS011;55654;50.966;6.878;2023-11-19T13:55:12;20.60;;;2.88;;
43529;SDS011;55654;50.966;6.878;2023-11-19T13:57:39;19.75;;;3.55;;
43529;SDS011;55654;50.966;6.878;2023-11-19T14:00:09;21.63;;;3.20;;
43529;SDS011;55654;50.966;6.878;2023-11-19T14:05:13;18.48;;;4.05;;
43529;SDS011;55654;50.966;6.878;2023-11-19T14:07:46;22.35;;;3.78;;
43529;SDS011;55654;50.966;6.878;2023-11-19T14:10:27;16.45;;;2.83;;
43529;SDS011;55654;50.966;6.878;2023-11-19T14:13:16;15.07;;;2.92;;
43529;SDS011;55654;50.966;6.878;2023-11-19T14:15:46;15.60;;;3.63;;
43529;SDS011;55654;50.966;6.878;2023-11-19T14:18:17;18.65;;;3.38;;
43529;SDS011;55654;50.966;6.878;2023-11-19T14:20:46;11.07;;;2.17;;
43529;SDS011;55654;50.966;6.878;2023-11-19T14:23:20;16.55;;;2.83;;
43529;SDS011;55654;50.966;6.878;2023-11-19T14:25:49;16.10;;;3.00;;
43529;SDS011;55654;50.966;6.878;2023-11-19T14:28:22;16.65;;;3.80;;
43529;SDS011;55654;50.966;6.878;2023-11-19T14:30:52;13.15;;;2.88;;
43529;SDS011;55654;50.966;6.878;2023-11-19T14:33:21;16.85;;;3.35;;
43529;SDS011;55654;50.966;6.878;2023-11-19T14:35:49;13.65;;;2.47;;
43529;SDS011;55654;50.966;6.878;2023-11-19T14:38:33;19.67;;;2.93;;
43529;SDS011;55654;50.966;6.878;2023-11-19T14:40:59;16.00;;;2.80;;
43529;SDS011;55654;50.966;6.878;2023-11-19T14:43:27;17.25;;;2.47;;
43529;SDS011;55654;50.966;6.878;2023-11-19T14:45:53;13.27;;;2.53;;
43529;SDS011;55654;50.966;6.878;2023-11-19T14:48:19;22.43;;;3.43;;
43529;SDS011;55654;50.966;6.878;2023-11-19T14:50:44;16.00;;;2.63;;
43529;SDS011;55654;50.966;6.878;2023-11-19T14:53:13;17.33;;;3.17;;
43529;SDS011;55654;50.966;6.878;2023-11-19T14:55:40;21.15;;;3.78;;
43529;SDS011;55654;50.966;6.878;2023-11-19T14:58:06;14.67;;;2.60;;
43529;SDS011;55654;50.966;6.878;2023-11-19T15:00:42;17.13;;;2.75;;
43529;SDS011;55654;50.966;6.878;2023-11-19T15:03:10;16.43;;;3.37;;
43529;SDS011;55654;50.966;6.878;2023-11-19T15:05:37;13.97;;;2.77;;
43529;SDS011;55654;50.966;6.878;2023-11-19T15:08:07;15.13;;;2.70;;
43529;SDS011;55654;50.966;6.878;2023-11-19T15:10:33;16.70;;;3.57;;
43529;SDS011;55654;50.966;6.878;2023-11-19T15:13:17;12.97;;;3.17;;
43529;SDS011;55654;50.966;6.878;2023-11-19T15:15:45;19.23;;;3.37;;
43529;SDS011;55654;50.966;6.878;2023-11-19T15:18:14;18.10;;;3.80;;